Terminal Aerodrome Forecast
Issued by NWS

Home | Current Version | Previous Version | Text Only | Print | Product List | Glossary On
Versions: 1 2 3 4 5 6 7 8 9 10 11 12 13 14 15 16 17 18 19 20 21 22 23 24
000
FTUS43 KIND 291235 AAA
TAFLAF
TAF AMD
KLAF 291235Z 2913/3012 26005KT P6SM VCTS SCT040CB BKN250
     FM291500 28007KT P6SM VCTS BKN040CB
      TEMPO 2917/2921 3SM -TSRA BKN030CB
     FM292200 31006KT P6SM SCT035 BKN120
     FM300000 31004KT P6SM SCT250=

USA.gov is the U.S. government's official web portal to all federal, state and local government web resources and services.